Time;durP1;ratioP1;P1;durP2;ratioP2;P2;SDS_P1;SDS_P2;PMS_P1;PMS_P2;Temp;Humidity;BMP_temperature;BMP_pressure;BME280_temperature;BME280_humidity;BME280_pressure;Samples;Min_cycle;Max_cycle;Signal;HPM_P1;HPM_P2
2022/07/22 00:01:15;;;;;;;;;20.75;19.50;;;;;29.06;34.37;99308.66;5029754;28;8851;-75
2022/07/22 00:03:45;;;;;;;;;28.50;27.75;;;;;29.00;34.88;99309.16;5029202;28;8944;-75
2022/07/22 00:06:14;;;;;;;;;31.50;30.50;;;;;28.94;35.67;99309.66;5029533;28;8880;-76
2022/07/22 00:08:43;;;;;;;;;28.00;27.75;;;;;28.93;35.55;99311.47;5029513;28;8835;-75
2022/07/22 00:11:12;;;;;;;;;26.00;25.75;;;;;28.92;35.48;99306.22;5029490;28;8867;-78
2022/07/22 00:13:41;;;;;;;;;28.75;28.25;;;;;28.90;35.92;99321.63;5026392;28;8847;-75
2022/07/22 00:16:10;;;;;;;;;25.25;25.00;;;;;28.87;35.71;99319.19;5029405;28;8860;-77
2022/07/22 00:18:38;;;;;;;;;26.50;24.50;;;;;28.83;35.68;99321.28;4994246;28;8856;-76
2022/07/22 00:21:09;;;;;;;;;24.25;24.25;;;;;28.82;36.19;99324.06;5010498;28;8848;-75
2022/07/22 00:23:39;;;;;;;;;27.25;24.75;;;;;28.75;36.05;99326.38;5029072;28;8878;-74
2022/07/22 00:26:08;;;;;;;;;26.00;23.75;;;;;28.68;36.18;99326.03;5028538;28;8867;-76
2022/07/22 00:28:37;;;;;;;;;27.50;25.50;;;;;28.63;36.31;99330.91;5028876;28;8840;-76
2022/07/22 00:31:07;;;;;;;;;25.25;24.00;;;;;28.57;36.40;99334.06;5026780;28;9714;-76
2022/07/22 00:33:35;;;;;;;;;26.25;24.75;;;;;28.53;36.61;99333.44;5042735;28;8852;-76
2022/07/22 00:36:06;;;;;;;;;28.25;24.50;;;;;28.48;36.64;99332.06;5048500;28;8856;-76
2022/07/22 00:38:36;;;;;;;;;23.50;22.75;;;;;28.44;36.23;99331.47;5046090;28;8887;-75
2022/07/22 00:41:05;;;;;;;;;23.25;23.25;;;;;28.40;36.16;99327.31;5047815;28;8877;-76
2022/07/22 00:43:53;;;;;;;;;22.00;21.00;;;;;28.36;35.85;99329.38;5047345;28;8895;-77
2022/07/22 00:46:24;;;;;;;;;18.75;18.25;;;;;28.31;36.08;99334.22;5049072;28;8829;-76
2022/07/22 00:48:54;;;;;;;;;24.25;23.25;;;;;28.27;36.48;99330.09;5031116;28;8857;-75
2022/07/22 00:51:25;;;;;;;;;16.00;15.75;;;;;28.22;36.29;99334.09;5047824;28;8861;-75
2022/07/22 00:53:57;;;;;;;;;24.50;24.50;;;;;28.15;36.63;99331.06;5013368;28;8903;-75
2022/07/22 00:56:27;;;;;;;;;20.50;20.25;;;;;28.04;36.76;99326.50;5013036;28;8860;-75
2022/07/22 00:58:58;;;;;;;;;25.50;23.00;;;;;27.97;36.85;99327.94;5048162;28;8868;-78
2022/07/22 01:01:29;;;;;;;;;21.00;21.00;;;;;27.93;37.06;99327.31;5046292;28;8845;-78
2022/07/22 01:03:58;;;;;;;;;18.50;17.50;;;;;27.93;36.84;99324.63;5046868;28;8889;-76
2022/07/22 01:06:29;;;;;;;;;22.00;20.75;;;;;27.95;36.86;99328.06;5049659;28;8859;-76
2022/07/22 01:09:00;;;;;;;;;22.75;21.25;;;;;27.95;37.03;99327.22;5017494;28;8896;-76
2022/07/22 01:11:28;;;;;;;;;24.25;23.00;;;;;27.94;36.96;99326.38;5047930;28;8853;-75
2022/07/22 01:13:58;;;;;;;;;25.25;24.75;;;;;27.94;36.96;99323.69;5049880;28;8853;-76
2022/07/22 01:16:27;;;;;;;;;22.75;22.25;;;;;27.92;37.11;99324.75;5048312;28;8853;-75
2022/07/22 01:18:56;;;;;;;;;22.50;21.50;;;;;27.92;36.94;99320.25;5046880;28;8865;-77
2022/07/22 01:21:27;;;;;;;;;26.00;24.00;;;;;27.89;37.05;99322.31;5048126;28;8844;-76
2022/07/22 01:23:57;;;;;;;;;26.33;25.33;;;;;27.81;37.43;99331.75;5046795;28;8849;-76
2022/07/22 01:26:26;;;;;;;;;27.25;25.25;;;;;27.76;37.48;99328.56;5049897;28;8900;-75
2022/07/22 01:28:55;;;;;;;;;23.50;22.75;;;;;27.70;37.27;99329.03;5050645;28;8887;-75
2022/07/22 01:31:24;;;;;;;;;22.75;20.50;;;;;27.61;37.64;99321.69;5051894;28;8865;-77
2022/07/22 01:33:53;;;;;;;;;21.50;21.50;;;;;27.54;37.51;99329.34;5004171;28;8909;-76
2022/07/22 01:36:22;;;;;;;;;23.75;22.50;;;;;27.47;37.94;99324.53;5031114;28;8889;-75
2022/07/22 01:38:53;;;;;;;;;27.00;27.00;;;;;27.37;38.32;99324.34;5031372;28;8843;-76
2022/07/22 01:41:23;;;;;;;;;21.00;21.00;;;;;27.27;38.45;99326.00;5030543;28;8871;-76
2022/07/22 01:43:52;;;;;;;;;22.50;22.50;;;;;27.19;38.83;99321.19;5030473;28;8898;-75
2022/07/22 01:46:22;;;;;;;;;24.75;23.75;;;;;27.09;39.18;99312.09;5030375;28;8875;-76
2022/07/22 01:48:52;;;;;;;;;22.50;22.50;;;;;27.16;38.86;99318.72;5031639;28;8844;-76
2022/07/22 01:51:22;;;;;;;;;23.75;22.75;;;;;27.20;39.08;99321.09;5030077;28;9565;-75
2022/07/22 01:53:51;;;;;;;;;20.50;20.50;;;;;27.22;39.06;99324.50;4980618;28;8851;-76
2022/07/22 01:56:22;;;;;;;;;21.75;21.00;;;;;27.27;39.20;99320.66;5029900;28;8871;-76
2022/07/22 01:58:51;;;;;;;;;21.00;20.50;;;;;27.29;39.00;99316.88;5030025;28;8897;-75
2022/07/22 02:01:26;;;;;;;;;22.50;22.00;;;;;27.31;38.75;99314.94;5029994;28;8859;-76
2022/07/22 02:03:55;;;;;;;;;25.00;22.25;;;;;27.29;39.26;99319.56;5029929;28;8875;-75
2022/07/22 02:06:24;;;;;;;;;24.50;23.00;;;;;27.27;39.21;99321.50;5029720;28;8868;-75
2022/07/22 02:08:54;;;;;;;;;24.50;24.50;;;;;27.21;39.52;99313.91;5029760;28;8843;-76
2022/07/22 02:11:35;;;;;;;;;22.50;21.75;;;;;27.05;39.66;99319.50;5049036;28;9134;-76
2022/07/22 02:14:04;;;;;;;;;22.50;22.00;;;;;27.01;39.87;99307.31;5049401;28;8861;-75
2022/07/22 02:16:32;;;;;;;;;24.75;22.25;;;;;27.02;39.75;99312.56;5049696;28;8861;-76
2022/07/22 02:19:01;;;;;;;;;23.50;22.25;;;;;27.02;40.13;99317.91;5050800;28;8852;-76
2022/07/22 02:21:31;;;;;;;;;27.25;25.50;;;;;26.80;40.26;99320.41;5049391;28;8841;-76
2022/07/22 02:24:00;;;;;;;;;22.00;22.00;;;;;26.67;40.77;99316.91;5032033;28;8861;-75
2022/07/22 02:26:30;;;;;;;;;26.25;23.25;;;;;26.50;41.28;99310.88;5043468;28;8906;-75
2022/07/22 02:29:00;;;;;;;;;21.50;20.50;;;;;26.42;41.10;99314.09;5031306;28;8928;-76
2022/07/22 02:31:29;;;;;;;;;23.25;23.25;;;;;26.37;41.35;99316.28;5029592;28;8844;-75
2022/07/22 02:33:59;;;;;;;;;22.75;22.75;;;;;26.32;41.69;99318.41;5029779;28;8871;-76
2022/07/22 02:36:30;;;;;;;;;22.50;21.00;;;;;26.35;41.23;99310.19;5029600;28;9608;-75
2022/07/22 02:38:59;;;;;;;;;21.25;21.25;;;;;26.32;41.74;99312.19;5029823;28;9009;-74
2022/07/22 02:41:29;;;;;;;;;24.50;24.50;;;;;26.27;41.56;99323.19;5039491;28;8934;-76
2022/07/22 02:44:00;;;;;;;;;23.50;22.75;;;;;26.23;41.90;99325.22;5049894;28;8837;-76
2022/07/22 02:46:29;;;;;;;;;21.25;21.25;;;;;26.17;41.82;99328.31;5049489;28;8860;-75
2022/07/22 02:49:07;;;;;;;;;22.00;21.50;;;;;26.08;42.17;99325.44;5018698;28;8884;-76
2022/07/22 02:51:36;;;;;;;;;16.25;15.25;;;;;26.09;42.02;99337.81;5050110;28;8861;-76
2022/07/22 02:54:05;;;;;;;;;22.75;22.00;;;;;26.09;42.06;99338.69;5049869;28;8884;-76
2022/07/22 02:56:34;;;;;;;;;19.25;19.25;;;;;26.08;42.63;99336.13;5049039;28;8845;-76
2022/07/22 02:59:04;;;;;;;;;18.75;18.00;;;;;26.10;42.26;99335.06;5048379;28;8946;-76
2022/07/22 03:01:34;;;;;;;;;21.25;20.75;;;;;26.11;42.56;99338.59;5049798;28;8849;-75
2022/07/22 03:04:03;;;;;;;;;22.75;22.75;;;;;26.05;42.38;99342.53;5052290;28;8849;-75
2022/07/22 03:06:35;;;;;;;;;21.75;21.25;;;;;26.11;42.32;99343.94;5049214;28;8877;-75
2022/07/22 03:09:11;;;;;;;;;18.25;18.25;;;;;26.15;42.11;99343.63;5018482;28;8853;-75
2022/07/22 03:11:44;;;;;;;;;19.50;19.00;;;;;26.20;42.37;99349.50;5049647;28;8869;-76
2022/07/22 03:14:16;;;;;;;;;22.00;22.00;;;;;26.23;41.97;99343.09;5050689;28;8856;-77
2022/07/22 03:16:45;;;;;;;;;21.00;20.25;;;;;26.23;42.08;99351.97;5049671;28;8857;-75
2022/07/22 03:19:14;;;;;;;;;22.25;22.25;;;;;26.24;42.54;99344.81;5049149;28;8861;-76
2022/07/22 03:21:48;;;;;;;;;34.50;32.75;;;;;26.27;42.41;99344.59;5048687;28;9839;-76
2022/07/22 03:24:16;;;;;;;;;27.25;25.75;;;;;26.31;42.73;99350.59;5047777;28;8964;-76
2022/07/22 03:26:45;;;;;;;;;23.25;21.75;;;;;26.32;42.29;99345.13;5049013;28;8857;-77
2022/07/22 03:29:15;;;;;;;;;23.25;22.75;;;;;26.34;42.20;99355.72;5048807;28;8844;-75
2022/07/22 03:31:45;;;;;;;;;20.25;18.75;;;;;26.37;42.11;99355.50;5048349;28;8853;-75
2022/07/22 03:34:14;;;;;;;;;23.75;22.75;;;;;26.36;42.37;99357.31;4998715;28;8869;-76
2022/07/22 03:36:51;;;;;;;;;20.75;20.25;;;;;26.38;42.26;99362.56;5031040;28;8859;-75
2022/07/22 03:39:20;;;;;;;;;22.25;20.25;;;;;26.41;42.05;99357.03;5048495;28;8861;-76
2022/07/22 03:41:50;;;;;;;;;22.75;21.25;;;;;26.44;42.35;99362.13;5048031;28;8980;-76
2022/07/22 03:44:20;;;;;;;;;22.00;21.75;;;;;26.44;42.00;99362.97;5046106;28;8860;-76
2022/07/22 03:46:49;;;;;;;;;22.50;18.50;;;;;26.44;42.60;99362.13;5027738;28;8875;-76
2022/07/22 03:49:18;;;;;;;;;18.75;18.00;;;;;26.43;42.50;99366.63;5027110;28;8851;-75
2022/07/22 03:51:47;;;;;;;;;23.25;21.75;;;;;26.45;42.91;99362.03;4978492;28;8894;-76
2022/07/22 03:54:16;;;;;;;;;38.50;34.75;;;;;26.50;42.49;99364.38;4994128;28;8879;-75
2022/07/22 03:56:44;;;;;;;;;22.50;22.50;;;;;26.55;42.64;99367.59;5027924;28;8871;-75
2022/07/22 03:59:13;;;;;;;;;22.00;20.75;;;;;26.59;42.14;99361.09;5027891;28;8902;-75
2022/07/22 04:01:44;;;;;;;;;21.25;21.25;;;;;26.66;42.44;99369.56;4979359;28;8886;-75
2022/07/22 04:04:16;;;;;;;;;23.00;23.00;;;;;26.72;42.00;99365.59;5029367;28;8847;-76
2022/07/22 04:06:46;;;;;;;;;25.50;22.50;;;;;26.70;41.95;99373.72;4979124;28;8859;-77
2022/07/22 04:09:21;;;;;;;;;26.00;26.00;;;;;26.61;42.46;99377.03;5027871;28;8855;-75
2022/07/22 04:11:51;;;;;;;;;23.25;20.50;;;;;26.55;42.56;99369.44;5027404;28;9610;-74
2022/07/22 04:14:21;;;;;;;;;22.67;21.00;;;;;26.55;42.63;99377.44;5028652;28;8855;-75
2022/07/22 04:16:51;;;;;;;;;20.25;20.00;;;;;26.64;42.28;99368.81;4994016;28;8980;-76
2022/07/22 04:19:20;;;;;;;;;31.50;29.50;;;;;26.75;42.04;99374.28;5039024;28;8987;-76
2022/07/22 04:21:57;;;;;;;;;29.50;29.50;;;;;26.76;42.21;99369.78;5045972;28;8895;-75
2022/07/22 04:24:29;;;;;;;;;21.75;20.50;;;;;26.75;42.08;99381.41;5047101;28;8973;-75
2022/07/22 04:26:59;;;;;;;;;30.00;28.75;;;;;26.74;42.02;99379.72;5047477;28;9023;-76
2022/07/22 04:29:28;;;;;;;;;30.00;29.00;;;;;26.84;41.82;99378.97;5047139;28;8860;-75
2022/07/22 04:31:58;;;;;;;;;22.25;21.75;;;;;26.87;41.82;99380.56;5046935;28;8849;-75
2022/07/22 04:34:31;;;;;;;;;23.00;22.75;;;;;27.03;41.50;99383.00;5046858;28;8890;-77
2022/07/22 04:37:01;;;;;;;;;25.75;22.75;;;;;27.07;41.48;99384.50;5047651;28;8875;-78
2022/07/22 04:39:35;;;;;;;;;23.75;22.50;;;;;27.21;41.04;99372.81;5047303;28;8877;-77
2022/07/22 04:42:04;;;;;;;;;23.00;20.50;;;;;27.34;40.67;99376.31;5029791;28;8930;-74
2022/07/22 04:44:34;;;;;;;;;22.50;20.25;;;;;27.48;40.70;99385.19;5043049;28;9022;-75
2022/07/22 04:47:05;;;;;;;;;23.25;22.75;;;;;27.24;40.93;99385.97;5026936;28;8883;-75
2022/07/22 04:49:38;;;;;;;;;25.00;24.00;;;;;27.24;41.08;99383.31;5026623;28;8961;-77
2022/07/22 04:52:09;;;;;;;;;26.50;26.00;;;;;27.14;41.23;99379.56;5027191;28;8862;-76
2022/07/22 04:54:45;;;;;;;;;24.50;24.00;;;;;27.19;41.56;99388.97;5010009;28;8863;-76
2022/07/22 04:57:14;;;;;;;;;24.50;22.50;;;;;27.20;41.27;99385.34;5027256;28;8957;-77
2022/07/22 04:59:43;;;;;;;;;19.50;19.50;;;;;27.32;41.14;99377.41;4994715;28;8879;-76
2022/07/22 05:02:14;;;;;;;;;24.25;23.75;;;;;27.49;41.02;99384.22;5028609;28;8948;-75
2022/07/22 05:04:43;;;;;;;;;19.25;19.25;;;;;27.65;40.83;99384.78;5028298;28;8851;-76
2022/07/22 05:07:13;;;;;;;;;20.50;20.50;;;;;27.77;40.44;99383.03;5027538;28;8868;-76
2022/07/22 05:09:41;;;;;;;;;20.50;20.25;;;;;27.92;40.25;99376.56;5010762;28;8968;-75
2022/07/22 05:12:13;;;;;;;;;25.25;23.75;;;;;28.05;39.55;99381.81;5026829;28;8860;-75
2022/07/22 05:14:42;;;;;;;;;22.50;21.75;;;;;28.09;39.52;99377.97;5032743;28;8845;-76
2022/07/22 05:17:13;;;;;;;;;27.75;27.75;;;;;27.87;39.58;99377.84;5047239;28;9002;-78
2022/07/22 05:19:57;;;;;;;;;20.75;20.75;;;;;28.05;40.12;99384.50;5046809;28;8864;-77
2022/07/22 05:22:27;;;;;;;;;22.25;21.00;;;;;28.18;39.85;99382.59;5047024;28;8877;-75
2022/07/22 05:25:02;;;;;;;;;22.75;21.50;;;;;28.26;39.37;99376.66;5046521;28;9002;-76
2022/07/22 05:27:31;;;;;;;;;17.25;17.25;;;;;28.40;39.19;99380.97;5030536;28;8873;-75
2022/07/22 05:30:00;;;;;;;;;23.00;21.00;;;;;28.52;39.06;99380.03;5046654;28;8985;-75
2022/07/22 05:32:32;;;;;;;;;23.75;22.50;;;;;28.52;39.43;99376.50;5047121;28;8853;-76
2022/07/22 05:35:05;;;;;;;;;22.25;22.00;;;;;28.65;39.11;99371.88;5030700;28;8861;-75
2022/07/22 05:37:34;;;;;;;;;25.50;25.50;;;;;28.32;39.10;99375.34;5046661;28;8861;-76
2022/07/22 05:40:02;;;;;;;;;23.25;23.25;;;;;28.33;39.29;99380.56;5046755;28;8971;-76
2022/07/22 05:42:32;;;;;;;;;19.50;18.50;;;;;28.37;39.24;99381.19;4996832;28;8892;-78
2022/07/22 05:45:01;;;;;;;;;26.00;25.25;;;;;28.12;39.78;99377.72;5013250;28;8950;-76
2022/07/22 05:47:29;;;;;;;;;17.75;17.25;;;;;28.27;39.70;99378.38;5048278;28;9596;-76
2022/07/22 05:50:00;;;;;;;;;23.00;22.75;;;;;28.34;39.31;99378.75;5036300;28;8868;-76
2022/07/22 05:52:30;;;;;;;;;24.75;22.75;;;;;28.54;39.12;99382.59;5010233;28;8836;-77
2022/07/22 05:55:00;;;;;;;;;14.50;14.50;;;;;28.74;38.67;99386.41;5010312;28;8875;-76
2022/07/22 05:57:29;;;;;;;;;18.75;18.75;;;;;28.90;38.66;99391.41;5026010;28;8982;-78
2022/07/22 05:59:58;;;;;;;;;22.50;20.50;;;;;28.99;38.75;99389.84;5026232;28;8856;-77
2022/07/22 06:02:28;;;;;;;;;23.25;23.25;;;;;29.13;38.20;99394.97;5009805;28;8881;-77
2022/07/22 06:04:57;;;;;;;;;21.50;21.50;;;;;29.33;37.90;99398.75;5026653;28;8863;-77
2022/07/22 06:07:29;;;;;;;;;24.75;24.75;;;;;29.47;38.19;99394.94;5026268;28;8859;-76
2022/07/22 06:10:01;;;;;;;;;24.25;24.00;;;;;29.59;37.74;99401.16;5026468;28;8863;-77
2022/07/22 06:12:33;;;;;;;;;21.25;21.25;;;;;29.52;37.78;99398.09;5006866;28;9614;-76
2022/07/22 06:15:02;;;;;;;;;25.50;24.75;;;;;29.65;37.60;99403.31;5008512;28;8861;-77
2022/07/22 06:17:31;;;;;;;;;23.00;22.75;;;;;29.74;36.96;99405.28;5008557;28;8884;-77
2022/07/22 06:20:02;;;;;;;;;28.25;26.50;;;;;29.69;36.98;99411.00;4992381;28;8975;-77
2022/07/22 06:22:34;;;;;;;;;23.25;21.50;;;;;29.73;37.17;99417.00;5024709;28;9006;-76
2022/07/22 06:25:03;;;;;;;;;20.25;20.25;;;;;29.83;37.57;99427.84;5011836;28;8847;-75
2022/07/22 06:27:52;;;;;;;;;24.25;24.25;;;;;30.02;36.86;99421.78;5039597;28;8929;-76
2022/07/22 06:30:21;;;;;;;;;22.00;21.50;;;;;30.07;36.14;99424.97;5049077;28;8894;-75
2022/07/22 06:32:50;;;;;;;;;24.50;23.50;;;;;29.84;37.08;99421.50;5029612;28;8981;-76
2022/07/22 06:35:25;;;;;;;;;24.75;24.25;;;;;29.29;37.50;99427.69;5034907;28;8966;-75
2022/07/22 06:37:55;;;;;;;;;23.75;23.25;;;;;29.33;37.67;99428.28;5018835;28;8904;-76
2022/07/22 06:40:47;;;;;;;;;25.25;23.75;;;;;29.37;37.78;99418.16;5030642;28;8859;-76
2022/07/22 06:43:35;;;;;;;;;22.75;21.75;;;;;29.50;37.72;99411.66;5017347;28;8875;-75
2022/07/22 06:46:24;;;;;;;;;28.25;25.75;;;;;29.40;37.25;99417.94;5014315;28;8872;-76
2022/07/22 06:48:54;;;;;;;;;24.00;22.25;;;;;29.71;37.30;99419.78;5028921;28;8882;-76
2022/07/22 06:51:27;;;;;;;;;30.25;27.00;;;;;29.53;37.30;99426.69;5029728;28;8883;-76
2022/07/22 06:53:58;;;;;;;;;24.75;23.75;;;;;29.58;36.43;99423.63;5030082;28;8860;-75
2022/07/22 06:56:27;;;;;;;;;25.00;24.25;;;;;29.86;35.93;99430.31;4998352;28;8871;-75
2022/07/22 06:58:56;;;;;;;;;22.50;21.25;;;;;29.97;35.99;99421.34;5030513;28;8863;-76
2022/07/22 07:01:26;;;;;;;;;27.00;27.00;;;;;29.99;36.40;99435.53;4965191;28;9648;-76
2022/07/22 07:03:57;;;;;;;;;23.75;21.00;;;;;30.28;36.22;99427.69;5029004;28;8847;-76
2022/07/22 07:06:26;;;;;;;;;25.00;23.50;;;;;30.08;35.00;99432.06;5030711;28;8859;-77
2022/07/22 07:09:07;;;;;;;;;23.00;23.00;;;;;30.38;34.89;99425.97;5041580;28;8860;-77
2022/07/22 07:11:37;;;;;;;;;22.50;21.50;;;;;30.66;34.41;99432.53;5048294;28;8853;-76
2022/07/22 07:14:14;;;;;;;;;24.25;22.50;;;;;30.86;33.82;99433.47;5048768;28;9609;-77
2022/07/22 07:16:43;;;;;;;;;21.50;19.00;;;;;31.02;33.08;99432.16;5048328;28;8938;-76
2022/07/22 07:19:12;;;;;;;;;19.00;19.00;;;;;31.09;32.20;99430.63;5048421;28;9602;-78
2022/07/22 07:21:41;;;;;;;;;23.25;23.25;;;;;30.77;32.72;99436.97;5045771;28;8849;-77
2022/07/22 07:24:11;;;;;;;;;21.00;19.25;;;;;30.77;33.32;99442.34;4977893;28;8993;-78
2022/07/22 07:26:41;;;;;;;;;18.25;18.25;;;;;30.96;32.90;99444.31;5028252;28;8852;-78
2022/07/22 07:29:10;;;;;;;;;21.75;19.25;;;;;31.19;32.52;99447.72;5028179;28;8906;-76
2022/07/22 07:31:41;;;;;;;;;25.75;25.50;;;;;31.41;32.84;99443.09;4994465;28;8913;-76
2022/07/22 07:34:15;;;;;;;;;22.50;22.50;;;;;31.16;32.42;99445.28;5027912;28;8859;-75
2022/07/22 07:36:44;;;;;;;;;17.25;13.50;;;;;31.13;31.60;99447.38;5027963;28;8863;-74
2022/07/22 07:39:17;;;;;;;;;20.75;20.50;;;;;30.89;29.83;99453.91;4979094;28;8951;-78
2022/07/22 07:41:46;;;;;;;;;17.25;17.25;;;;;30.54;29.69;99446.19;5028923;28;8843;-76
2022/07/22 07:44:23;;;;;;;;;18.75;18.00;;;;;30.75;29.24;99449.69;5037930;28;8880;-74
2022/07/22 07:46:52;;;;;;;;;15.75;15.75;;;;;30.94;28.88;99449.00;5048549;28;8879;-76
2022/07/22 07:49:22;;;;;;;;;16.50;16.50;;;;;31.27;28.75;99450.56;5048161;28;8872;-75
2022/07/22 07:51:51;;;;;;;;;17.75;17.75;;;;;31.27;28.63;99447.03;5048079;28;8891;-78
2022/07/22 07:54:22;;;;;;;;;16.25;16.25;;;;;31.28;29.13;99446.88;5048392;28;8949;-77
2022/07/22 07:56:52;;;;;;;;;21.75;19.50;;;;;31.00;30.30;99453.88;5047966;28;8849;-76
2022/07/22 07:59:22;;;;;;;;;18.75;18.75;;;;;31.20;29.41;99445.88;5030278;28;8845;-76
2022/07/22 08:01:57;;;;;;;;;14.00;14.00;;;;;31.59;28.77;99444.19;5048318;28;8844;-76
2022/07/22 08:04:29;;;;;;;;;18.00;17.25;;;;;31.89;27.52;99449.63;5047992;28;8912;-77
2022/07/22 08:07:09;;;;;;;;;14.75;14.75;;;;;32.09;28.66;99447.84;5029982;28;8898;-76
2022/07/22 08:09:42;;;;;;;;;19.00;17.75;;;;;32.40;28.12;99451.22;5029656;28;9649;-77
2022/07/22 08:12:33;;;;;;;;;20.00;18.50;;;;;32.21;27.75;99452.09;5030254;28;8864;-76
2022/07/22 08:15:28;;;;;;;;;19.50;18.25;;;;;32.49;27.47;99455.75;5026202;28;10005;-76
2022/07/22 08:17:58;;;;;;;;;16.75;16.00;;;;;32.72;26.22;99450.91;5009695;28;8958;-78
2022/07/22 08:20:27;;;;;;;;;14.75;14.75;;;;;32.38;24.55;99450.50;5025925;28;8870;-75
2022/07/22 08:22:56;;;;;;;;;13.50;13.50;;;;;32.15;23.12;99464.28;4977562;28;8892;-76
2022/07/22 08:25:30;;;;;;;;;13.00;12.50;;;;;32.05;23.18;99458.06;5009082;28;8987;-76
2022/07/22 08:27:59;;;;;;;;;11.50;10.50;;;;;31.65;22.88;99458.97;4977618;28;9076;-77
2022/07/22 08:30:28;;;;;;;;;14.25;13.75;;;;;31.71;23.16;99457.56;5009081;28;8965;-75
2022/07/22 08:32:58;;;;;;;;;10.75;10.75;;;;;31.65;23.37;99458.97;5009398;28;8874;-75
2022/07/22 08:35:27;;;;;;;;;8.50;8.00;;;;;31.46;21.77;99457.91;5008324;28;8839;-76
2022/07/22 08:37:56;;;;;;;;;9.75;9.25;;;;;31.21;22.10;99459.22;5009275;28;8862;-78
2022/07/22 08:40:26;;;;;;;;;11.50;10.50;;;;;31.35;22.42;99459.81;5008941;28;9005;-77
2022/07/22 08:42:57;;;;;;;;;11.00;11.00;;;;;31.15;23.19;99462.41;5009568;28;8885;-76
2022/07/22 08:45:27;;;;;;;;;9.75;9.75;;;;;31.45;22.61;99456.16;5025892;28;8893;-76
2022/07/22 08:47:56;;;;;;;;;13.75;11.75;;;;;31.78;21.42;99446.06;5009618;28;8911;-75
2022/07/22 08:50:31;;;;;;;;;11.75;10.00;;;;;31.97;21.72;99457.88;4985790;28;8885;-75
2022/07/22 08:53:04;;;;;;;;;10.75;10.75;;;;;32.29;21.79;99454.94;5038702;28;8881;-77
2022/07/22 08:55:35;;;;;;;;;7.50;7.50;;;;;32.22;20.73;99464.59;5019450;28;8849;-77
2022/07/22 08:58:05;;;;;;;;;9.75;9.75;;;;;32.09;20.79;99461.31;5050091;28;8899;-77
2022/07/22 09:00:34;;;;;;;;;8.75;7.50;;;;;32.48;20.18;99464.88;5030182;28;8852;-73
2022/07/22 09:03:17;;;;;;;;;3.00;3.00;;;;;32.75;17.40;99469.53;5028731;28;8891;-75
2022/07/22 09:05:49;;;;;;;;;4.25;4.25;;;;;32.85;16.20;99469.53;5010205;28;8880;-76
2022/07/22 09:08:19;;;;;;;;;9.25;9.25;;;;;33.12;18.46;99466.06;5026680;28;8851;-76
2022/07/22 09:11:16;;;;;;;;;6.25;5.25;;;;;32.90;16.01;99467.25;5027926;28;9036;-77
2022/07/22 09:14:15;;;;;;;;;11.00;11.00;;;;;32.53;20.25;99470.66;4976801;28;8864;-77
2022/07/22 09:16:54;;;;;;;;;12.25;11.75;;;;;32.94;20.85;99476.75;4970162;28;8965;-76
2022/07/22 09:19:33;;;;;;;;;12.75;12.75;;;;;33.17;20.78;99463.75;4955781;28;8898;-77
2022/07/22 09:22:32;;;;;;;;;13.00;13.00;;;;;33.16;20.45;99466.63;4969924;28;8867;-76
2022/07/22 09:25:28;;;;;;;;;14.25;13.00;;;;;33.31;20.04;99466.97;4985703;28;8931;-77
2022/07/22 09:28:24;;;;;;;;;13.25;12.25;;;;;32.91;21.25;99462.69;4983510;28;8873;-75
2022/07/22 09:31:26;;;;;;;;;9.50;8.75;;;;;32.57;20.09;99474.84;4985079;28;9657;-74
2022/07/22 09:34:05;;;;;;;;;10.75;9.75;;;;;32.89;19.37;99459.28;4939569;28;8850;-76
2022/07/22 09:36:55;;;;;;;;;9.75;9.75;;;;;33.05;18.35;99461.38;4969220;28;8846;-74
2022/07/22 09:39:27;;;;;;;;;12.50;11.50;;;;;32.28;19.53;99469.41;4952821;28;9042;-76
2022/07/22 09:41:59;;;;;;;;;11.25;11.25;;;;;32.79;20.35;99467.41;4969487;28;8862;-75
2022/07/22 09:44:28;;;;;;;;;10.25;8.25;;;;;32.91;17.98;99468.09;4969070;28;8858;-77
2022/07/22 09:47:02;;;;;;;;;6.75;6.75;;;;;32.33;17.85;99466.31;4970211;28;8876;-78
2022/07/22 09:50:15;;;;;;;;;8.50;8.50;;;;;32.37;18.68;99465.88;4989903;28;8866;-78
2022/07/22 09:53:03;;;;;;;;;6.25;6.25;;;;;32.18;17.09;99466.72;5048268;28;8873;-76
2022/07/22 09:55:39;;;;;;;;;3.50;3.50;;;;;32.33;15.14;99469.00;5031602;28;8846;-74
2022/07/22 09:58:08;;;;;;;;;5.25;4.25;;;;;32.68;16.15;99463.00;5031693;28;8928;-74
2022/07/22 10:00:38;;;;;;;;;6.25;4.75;;;;;32.92;15.83;99470.66;5048419;28;9604;-75
2022/07/22 10:03:12;;;;;;;;;4.00;4.00;;;;;32.37;15.43;99471.25;5035558;28;9013;-75
2022/07/22 10:05:42;;;;;;;;;4.50;4.50;;;;;32.08;15.48;99476.66;5013573;28;8944;-77
2022/07/22 10:08:12;;;;;;;;;6.00;6.00;;;;;32.02;15.75;99469.13;5030787;28;8894;-75
2022/07/22 10:10:42;;;;;;;;;6.00;4.80;;;;;32.41;16.49;99475.38;5045971;28;8871;-76
2022/07/22 10:13:11;;;;;;;;;3.20;3.20;;;;;32.72;15.19;99463.56;5031046;28;8863;-77
2022/07/22 10:15:40;;;;;;;;;4.40;4.40;;;;;32.57;14.74;99465.88;5029234;28;8867;-76
2022/07/22 10:18:18;;;;;;;;;4.80;4.80;;;;;32.32;15.89;99462.72;4981069;28;8864;-76
2022/07/22 10:20:49;;;;;;;;;5.00;5.00;;;;;32.43;16.27;99472.53;5029773;28;8863;-76
2022/07/22 10:23:18;;;;;;;;;4.80;4.00;;;;;32.33;16.17;99464.44;5062052;28;8883;-76
2022/07/22 10:25:52;;;;;;;;;7.00;5.80;;;;;32.57;16.42;99455.94;5030101;28;9652;-77
2022/07/22 10:28:27;;;;;;;;;8.50;8.00;;;;;32.72;18.06;99455.47;5029709;28;8867;-76
2022/07/22 10:31:18;;;;;;;;;6.75;6.75;;;;;32.86;17.62;99454.19;5031140;28;8879;-77
2022/07/22 10:33:52;;;;;;;;;8.50;8.50;;;;;32.87;19.07;99456.72;5031086;28;8855;-76
2022/07/22 10:36:35;;;;;;;;;9.75;8.00;;;;;33.09;19.24;99462.78;5029689;28;9640;-77
2022/07/22 10:39:07;;;;;;;;;12.00;10.25;;;;;33.09;19.12;99454.69;5029751;28;9610;-77
2022/07/22 10:41:37;;;;;;;;;8.00;8.00;;;;;32.75;19.25;99458.75;5031158;28;8875;-76
2022/07/22 10:44:07;;;;;;;;;10.50;10.25;;;;;32.51;20.31;99466.41;5032711;28;8851;-75
2022/07/22 10:46:49;;;;;;;;;9.25;9.25;;;;;32.88;20.16;99452.19;5035246;28;8863;-74
2022/07/22 10:49:21;;;;;;;;;11.50;11.50;;;;;33.10;20.23;99451.84;5036583;28;8887;-78
2022/07/22 10:52:16;;;;;;;;;6.25;4.00;;;;;33.40;20.79;99453.44;5016544;28;8878;-78
2022/07/22 10:55:18;;;;;;;;;11.25;11.25;;;;;32.87;20.17;99447.78;5033028;28;8878;-75
2022/07/22 10:57:48;;;;;;;;;8.25;7.00;;;;;32.74;20.88;99454.34;5031452;28;8844;-77
2022/07/22 11:00:17;;;;;;;;;10.25;10.00;;;;;32.92;20.33;99438.22;5030613;28;8867;-77
2022/07/22 11:02:46;;;;;;;;;8.25;8.25;;;;;32.96;20.17;99444.19;5029537;28;8844;-77
2022/07/22 11:05:26;;;;;;;;;8.75;8.75;;;;;33.15;19.75;99443.28;5030481;28;10009;-75
2022/07/22 11:07:55;;;;;;;;;10.75;10.75;;;;;33.57;19.58;99438.25;5030816;28;8882;-76
2022/07/22 11:10:23;;;;;;;;;8.50;7.75;;;;;33.58;18.31;99441.81;4996434;28;8937;-76
2022/07/22 11:12:52;;;;;;;;;12.00;10.50;;;;;33.92;19.39;99436.63;5030071;28;8864;-77
2022/07/22 11:15:26;;;;;;;;;12.75;11.50;;;;;34.30;19.48;99437.34;5042839;28;8883;-78
2022/07/22 11:17:57;;;;;;;;;11.50;11.50;;;;;34.73;19.46;99434.81;5050287;28;8928;-77
2022/07/22 11:20:29;;;;;;;;;9.75;8.75;;;;;35.09;18.88;99442.81;5033660;28;8871;-76
2022/07/22 11:22:58;;;;;;;;;10.00;9.00;;;;;35.32;18.05;99433.13;5040666;28;8867;-75
2022/07/22 11:25:28;;;;;;;;;9.00;9.00;;;;;35.66;17.95;99428.66;5033797;28;8852;-75
2022/07/22 11:27:58;;;;;;;;;8.75;8.00;;;;;35.95;18.18;99424.69;5031504;28;8863;-77
2022/07/22 11:30:26;;;;;;;;;9.75;9.75;;;;;36.34;17.62;99435.78;5029874;28;8889;-76
2022/07/22 11:32:55;;;;;;;;;6.25;6.25;;;;;36.63;17.50;99427.06;4995112;28;8855;-77
2022/07/22 11:35:24;;;;;;;;;8.50;8.50;;;;;36.96;16.73;99421.63;5029380;28;9009;-76
2022/07/22 11:37:57;;;;;;;;;8.00;8.00;;;;;36.22;16.55;99428.97;5029446;28;8856;-76
2022/07/22 11:40:33;;;;;;;;;9.25;9.25;;;;;35.47;17.09;99427.94;5029315;28;8864;-75
2022/07/22 11:43:02;;;;;;;;;8.50;7.50;;;;;35.86;17.71;99416.53;5029419;28;8877;-77
2022/07/22 11:45:31;;;;;;;;;10.25;10.25;;;;;35.50;17.01;99424.91;5029320;28;8855;-77
2022/07/22 11:48:09;;;;;;;;;7.75;7.75;;;;;35.47;16.87;99419.78;4994940;28;8957;-78
2022/07/22 11:50:38;;;;;;;;;10.25;7.25;;;;;35.26;17.99;99419.38;5029490;28;8855;-79
2022/07/22 11:53:08;;;;;;;;;7.75;7.75;;;;;35.21;17.96;99416.31;5043673;28;8864;-75